createdAt,value
2022-12-26T00:00:30.653Z,370.10
2022-12-26T00:03:18.843Z,398.58
2022-12-26T00:06:13.577Z,386.85
2022-12-26T00:09:03.988Z,385.40
2022-12-26T00:11:52.244Z,371.25
2022-12-26T00:14:40.937Z,386.23
2022-12-26T00:17:29.030Z,368.90
2022-12-26T00:20:17.283Z,373.23
2022-12-26T00:23:06.607Z,379.30
2022-12-26T00:25:54.547Z,402.95
2022-12-26T00:28:43.185Z,380.80
2022-12-26T00:31:34.275Z,388.42
2022-12-26T00:34:22.312Z,363.98
2022-12-26T00:37:10.380Z,358.92
2022-12-26T00:39:59.681Z,374.67
2022-12-26T00:42:47.648Z,369.17
2022-12-26T00:45:35.597Z,386.98
2022-12-26T00:48:23.842Z,389.00
2022-12-26T00:51:11.924Z,392.05
2022-12-26T00:53:59.844Z,399.35
2022-12-26T00:56:49.173Z,377.50
2022-12-26T00:59:37.137Z,386.35
2022-12-26T01:02:38.837Z,374.42
2022-12-26T01:05:28.225Z,357.35
2022-12-26T01:08:21.823Z,372.20
2022-12-26T01:11:14.325Z,384.08
2022-12-26T01:14:03.694Z,374.77
2022-12-26T01:16:51.669Z,347.58
2022-12-26T01:19:39.662Z,402.45
2022-12-26T01:22:28.628Z,381.92
2022-12-26T01:25:16.701Z,399.08
2022-12-26T01:28:04.953Z,365.33
2022-12-26T01:30:54.361Z,377.25
2022-12-26T01:33:42.388Z,384.08
2022-12-26T01:36:30.470Z,387.80
2022-12-26T01:39:18.409Z,379.55
2022-12-26T01:42:14.098Z,372.90
2022-12-26T01:45:06.193Z,366.98
2022-12-26T01:48:03.154Z,392.92
2022-12-26T01:50:55.278Z,371.60
2022-12-26T01:53:46.773Z,376.20
2022-12-26T01:56:38.554Z,366.77
2022-12-26T01:59:31.745Z,365.33
2022-12-26T02:02:21.823Z,376.27
2022-12-26T02:05:40.358Z,363.80
2022-12-26T02:08:31.995Z,358.38
2022-12-26T02:11:23.710Z,363.20
2022-12-26T02:14:13.085Z,378.40
2022-12-26T02:17:01.353Z,369.48
2022-12-26T02:20:03.952Z,382.40
2022-12-26T02:23:19.738Z,355.63
2022-12-26T02:26:42.357Z,373.58
2022-12-26T02:30:24.708Z,359.10
2022-12-26T02:33:27.958Z,351.45
2022-12-26T02:36:27.723Z,371.85
2022-12-26T02:39:44.329Z,356.17
2022-12-26T02:42:45.658Z,351.30
2022-12-26T02:46:13.888Z,363.67
2022-12-26T02:49:12.658Z,350.90
2022-12-26T02:52:28.094Z,370.58
2022-12-26T02:55:35.147Z,347.15
2022-12-26T02:58:43.905Z,343.38
2022-12-26T03:01:55.008Z,352.92
2022-12-26T03:05:04.301Z,361.50
2022-12-26T03:08:10.058Z,354.90
2022-12-26T03:11:17.329Z,335.95
2022-12-26T03:14:15.182Z,342.38
2022-12-26T03:17:21.742Z,366.55
2022-12-26T03:20:14.476Z,377.27
2022-12-26T03:23:06.538Z,362.50
2022-12-26T03:26:14.529Z,365.42
2022-12-26T03:29:19.196Z,358.65
2022-12-26T03:32:11.959Z,349.35
2022-12-26T03:34:59.936Z,360.55
2022-12-26T03:37:53.746Z,364.50
2022-12-26T03:41:08.993Z,357.88
2022-12-26T03:44:26.752Z,343.30
2022-12-26T03:47:42.952Z,356.00
2022-12-26T03:50:54.240Z,362.40
2022-12-26T03:54:06.897Z,364.10
2022-12-26T03:57:18.552Z,354.85
2022-12-26T04:00:27.353Z,358.23
2022-12-26T04:03:36.346Z,373.67
2022-12-26T04:06:46.625Z,360.10
2022-12-26T04:09:56.254Z,368.15
2022-12-26T04:13:05.920Z,378.63
2022-12-26T04:16:16.908Z,380.35
2022-12-26T04:19:26.114Z,367.75
2022-12-26T04:22:37.106Z,368.33
2022-12-26T04:25:50.860Z,373.05
2022-12-26T04:28:57.213Z,365.73
2022-12-26T04:32:08.394Z,350.65
2022-12-26T04:35:22.357Z,386.33
2022-12-26T04:38:30.248Z,347.52
2022-12-26T04:41:38.398Z,351.23
2022-12-26T04:44:29.781Z,376.23
2022-12-26T04:47:18.563Z,364.08
2022-12-26T04:50:13.435Z,342.92
2022-12-26T04:53:01.501Z,330.83
2022-12-26T04:55:49.806Z,360.30
2022-12-26T04:58:37.838Z,352.27
2022-12-26T05:01:43.567Z,352.58
2022-12-26T05:04:49.068Z,366.58
2022-12-26T05:07:56.315Z,353.35
2022-12-26T05:10:44.318Z,353.60
2022-12-26T05:13:32.287Z,356.00
2022-12-26T05:16:37.778Z,375.80
2022-12-26T05:19:43.446Z,349.05
2022-12-26T05:22:51.929Z,350.08
2022-12-26T05:26:02.143Z,356.67
2022-12-26T05:28:55.452Z,358.92
2022-12-26T05:31:43.706Z,350.30
2022-12-26T05:34:30.781Z,376.70
2022-12-26T05:37:18.776Z,355.52
2022-12-26T05:40:08.183Z,337.88
2022-12-26T05:42:57.787Z,355.90
2022-12-26T05:45:45.746Z,357.70
2022-12-26T05:48:35.620Z,368.42
2022-12-26T05:51:23.612Z,377.73
2022-12-26T05:54:11.953Z,360.77
2022-12-26T05:57:01.450Z,347.15
2022-12-26T05:59:50.772Z,363.40
2022-12-26T06:02:39.059Z,354.73
2022-12-26T06:05:27.508Z,354.55
2022-12-26T06:08:15.494Z,376.80
2022-12-26T06:11:06.072Z,371.70
2022-12-26T06:13:54.251Z,366.00
2022-12-26T06:16:43.762Z,366.75
2022-12-26T06:19:31.746Z,349.73
2022-12-26T06:22:19.879Z,376.45
2022-12-26T06:25:09.104Z,382.05
2022-12-26T06:27:57.052Z,356.38
2022-12-26T06:30:45.227Z,369.30
2022-12-26T06:33:34.778Z,361.63
2022-12-26T06:36:24.608Z,363.75
2022-12-26T06:39:12.551Z,346.52
2022-12-26T06:42:00.584Z,377.48
2022-12-26T06:44:48.515Z,356.25
2022-12-26T06:47:36.488Z,364.15
2022-12-26T06:50:26.234Z,356.55
2022-12-26T06:53:14.209Z,356.08
2022-12-26T06:56:07.222Z,327.33
2022-12-26T06:58:56.047Z,303.67
2022-12-26T07:01:44.083Z,321.63
2022-12-26T07:04:13.873Z,333.45
2022-12-26T07:06:43.137Z,307.27
2022-12-26T07:09:14.531Z,288.55
2022-12-26T07:11:46.174Z,304.27
2022-12-26T07:14:14.344Z,273.98
2022-12-26T07:16:43.888Z,289.77
2022-12-26T07:19:13.208Z,290.17
2022-12-26T07:21:41.418Z,259.33
2022-12-26T07:24:15.965Z,266.80
2022-12-26T07:26:44.052Z,275.38
2022-12-26T07:29:12.799Z,251.45
2022-12-26T07:31:41.254Z,262.60
2022-12-26T07:34:09.805Z,269.73
2022-12-26T07:36:37.607Z,260.90
2022-12-26T07:39:05.395Z,264.33
2022-12-26T07:41:52.337Z,271.90
2022-12-26T07:44:20.072Z,265.13
2022-12-26T07:46:47.724Z,271.40
2022-12-26T07:49:15.825Z,261.90
2022-12-26T07:51:44.086Z,285.80
2022-12-26T07:54:12.274Z,279.10
2022-12-26T07:56:42.431Z,280.50
2022-12-26T07:59:14.272Z,275.08
2022-12-26T08:01:42.238Z,278.73
2022-12-26T08:04:11.543Z,287.77
2022-12-26T08:06:39.632Z,293.98
2022-12-26T08:09:07.633Z,287.27
2022-12-26T08:11:36.344Z,281.13
2022-12-26T08:14:05.398Z,281.65
2022-12-26T08:16:33.308Z,280.27
2022-12-26T08:19:03.623Z,290.67
2022-12-26T08:21:31.687Z,298.67
2022-12-26T08:23:59.390Z,275.63
2022-12-26T08:26:27.108Z,264.45
2022-12-26T08:28:56.957Z,276.00
2022-12-26T08:33:56.545Z,283.30
2022-12-26T08:36:24.422Z,270.60
2022-12-26T08:38:52.162Z,269.65
2022-12-26T08:41:20.053Z,283.38
2022-12-26T08:46:40.597Z,271.20
2022-12-26T08:49:08.400Z,262.70
2022-12-26T08:51:36.381Z,255.98
2022-12-26T08:54:04.451Z,278.05
2022-12-26T08:56:32.809Z,295.38
2022-12-26T08:59:00.538Z,272.75
2022-12-26T09:01:29.890Z,269.65
2022-12-26T09:04:00.755Z,261.67
2022-12-26T09:06:30.271Z,245.38
2022-12-26T09:09:00.461Z,266.58
2022-12-26T09:11:29.314Z,261.55
2022-12-26T09:13:59.250Z,260.48
2022-12-26T09:16:34.128Z,270.33
2022-12-26T09:19:07.718Z,261.73
2022-12-26T09:21:35.504Z,273.50
2022-12-26T09:24:05.061Z,265.13
2022-12-26T09:26:33.220Z,275.70
2022-12-26T09:29:01.167Z,270.48
2022-12-26T09:31:31.799Z,270.25
2022-12-26T09:33:59.859Z,277.05
2022-12-26T09:36:31.423Z,265.55
2022-12-26T09:39:00.220Z,280.25
2022-12-26T09:41:43.998Z,262.63
2022-12-26T09:44:18.697Z,279.27
2022-12-26T09:46:57.478Z,272.98
2022-12-26T09:49:28.941Z,272.45
2022-12-26T09:52:01.624Z,274.42
2022-12-26T09:54:34.204Z,288.90
2022-12-26T09:57:11.256Z,295.85
2022-12-26T09:59:48.184Z,273.60
2022-12-26T10:02:19.480Z,291.70
2022-12-26T10:04:47.386Z,277.55
2022-12-26T10:07:23.829Z,291.92
2022-12-26T10:09:59.293Z,278.83
2022-12-26T10:12:38.532Z,265.00
2022-12-26T10:15:29.024Z,285.75
2022-12-26T10:18:05.946Z,266.38
2022-12-26T10:20:44.656Z,275.92
2022-12-26T10:23:31.440Z,287.98
2022-12-26T10:26:07.926Z,270.77
2022-12-26T10:28:40.263Z,298.23
2022-12-26T10:31:14.918Z,280.05
2022-12-26T10:33:48.025Z,273.48
2022-12-26T10:36:29.134Z,251.35
2022-12-26T10:39:00.842Z,273.00
2022-12-26T10:41:36.320Z,291.20
2022-12-26T10:44:04.100Z,272.05
2022-12-26T10:46:55.621Z,260.83
2022-12-26T10:49:26.675Z,276.50
2022-12-26T10:51:56.283Z,281.23
2022-12-26T10:54:25.735Z,284.83
2022-12-26T10:56:56.573Z,272.92
2022-12-26T10:59:31.474Z,262.85
2022-12-26T11:02:13.966Z,292.48
2022-12-26T11:05:27.392Z,275.95
2022-12-26T11:07:50.856Z,263.80
2022-12-26T11:10:22.403Z,267.52
2022-12-26T11:12:52.302Z,268.02
2022-12-26T11:15:24.201Z,287.70
2022-12-26T11:17:54.148Z,293.02
2022-12-26T11:20:29.615Z,277.63
2022-12-26T11:23:19.483Z,301.50
2022-12-26T11:25:52.028Z,275.70
2022-12-26T11:28:26.025Z,304.92
2022-12-26T11:30:54.027Z,265.63
2022-12-26T11:33:28.049Z,293.15
2022-12-26T11:36:06.149Z,267.77
2022-12-26T11:38:44.823Z,278.73
2022-12-26T11:41:33.625Z,281.30
2022-12-26T11:44:13.472Z,274.25
2022-12-26T11:46:44.235Z,268.58
2022-12-26T11:49:20.093Z,272.27
2022-12-26T11:51:52.916Z,274.65
2022-12-26T11:54:36.258Z,267.23
2022-12-26T11:57:16.086Z,275.08
2022-12-26T11:59:43.821Z,278.20
2022-12-26T12:02:19.432Z,278.95
2022-12-26T12:04:48.820Z,268.55
2022-12-26T12:07:30.052Z,282.17
2022-12-26T12:10:09.480Z,288.15
2022-12-26T12:12:43.960Z,263.08
2022-12-26T12:15:20.445Z,280.90
2022-12-26T12:18:03.767Z,286.85
2022-12-26T12:20:40.431Z,283.30
2022-12-26T12:23:27.081Z,277.88
2022-12-26T12:26:06.607Z,262.98
2022-12-26T12:29:06.852Z,283.30
2022-12-26T12:31:46.705Z,287.25
2022-12-26T12:34:26.357Z,294.48
2022-12-26T12:37:05.459Z,276.45
2022-12-26T12:39:47.209Z,271.65
2022-12-26T12:42:29.882Z,280.92
2022-12-26T12:45:18.565Z,293.08
2022-12-26T12:47:58.150Z,271.73
2022-12-26T12:50:32.652Z,276.27
2022-12-26T12:53:10.335Z,282.48
2022-12-26T12:55:52.912Z,275.85
2022-12-26T12:58:30.370Z,268.63
2022-12-26T13:01:04.781Z,269.63
2022-12-26T13:03:39.620Z,277.67
2022-12-26T13:06:12.951Z,265.25
2022-12-26T13:08:44.871Z,291.92
2022-12-26T13:11:18.680Z,272.60
2022-12-26T13:13:53.708Z,292.02
2022-12-26T13:16:25.879Z,284.45
2022-12-26T13:18:59.276Z,272.58
2022-12-26T13:21:28.276Z,275.85
2022-12-26T13:24:18.142Z,293.33
2022-12-26T13:26:50.816Z,272.88
2022-12-26T13:29:26.594Z,280.80
2022-12-26T13:31:54.386Z,260.45
2022-12-26T13:34:23.615Z,289.17
2022-12-26T13:36:53.715Z,274.33
2022-12-26T13:39:30.591Z,275.45
2022-12-26T13:42:21.061Z,272.60
2022-12-26T13:44:53.464Z,265.35
2022-12-26T13:47:33.567Z,288.85
2022-12-26T13:50:34.821Z,270.10
2022-12-26T13:53:04.773Z,267.83
2022-12-26T13:55:43.733Z,286.67
2022-12-26T13:58:37.471Z,259.85
2022-12-26T14:01:13.770Z,279.52
2022-12-26T14:03:51.864Z,271.75
2022-12-26T14:06:50.365Z,279.10
2022-12-26T14:09:42.270Z,268.35
2022-12-26T14:12:55.703Z,270.80
2022-12-26T14:15:31.097Z,256.05
2022-12-26T14:18:12.064Z,264.88
2022-12-26T14:20:45.722Z,275.65
2022-12-26T14:23:29.942Z,269.42
2022-12-26T14:26:05.655Z,266.67
2022-12-26T14:28:51.276Z,285.92
2022-12-26T14:31:26.104Z,255.30
2022-12-26T14:34:08.807Z,273.15
2022-12-26T14:36:45.645Z,268.33
2022-12-26T14:39:25.420Z,274.88
2022-12-26T14:42:37.489Z,268.13
2022-12-26T14:45:14.222Z,272.88
2022-12-26T14:47:45.877Z,270.05
2022-12-26T14:50:36.831Z,278.52
2022-12-26T14:53:31.421Z,268.30
2022-12-26T14:56:00.752Z,259.73
2022-12-26T14:58:39.831Z,277.58
2022-12-26T15:01:48.218Z,268.00
2022-12-26T15:04:42.948Z,257.85
2022-12-26T15:07:46.389Z,265.27
2022-12-26T15:10:43.467Z,254.10
2022-12-26T15:13:43.727Z,277.40
2022-12-26T15:16:23.855Z,258.55
2022-12-26T15:19:12.304Z,259.83
2022-12-26T15:22:00.856Z,289.00
2022-12-26T15:25:18.914Z,275.65
2022-12-26T15:28:23.504Z,256.98
2022-12-26T15:31:08.687Z,261.85
2022-12-26T15:33:41.760Z,262.00
2022-12-26T15:36:22.371Z,265.48
2022-12-26T15:38:58.657Z,262.25
2022-12-26T15:41:36.404Z,266.50
2022-12-26T15:44:22.292Z,262.27
2022-12-26T15:46:58.402Z,250.30
2022-12-26T15:49:43.717Z,272.00
2022-12-26T15:52:21.061Z,264.75
2022-12-26T15:55:20.219Z,268.15
2022-12-26T15:57:54.535Z,258.42
2022-12-26T16:00:23.517Z,267.02
2022-12-26T16:03:07.669Z,262.45
2022-12-26T16:05:48.544Z,261.27
2022-12-26T16:08:36.687Z,275.33
2022-12-26T16:11:20.208Z,261.90
2022-12-26T16:14:00.045Z,276.40
2022-12-26T16:16:30.997Z,287.10
2022-12-26T16:18:59.462Z,270.77
2022-12-26T16:21:47.757Z,282.25
2022-12-26T16:24:23.108Z,261.70
2022-12-26T16:26:50.806Z,275.92
2022-12-26T16:29:21.883Z,273.45
2022-12-26T16:31:49.577Z,262.30
2022-12-26T16:34:20.408Z,287.92
2022-12-26T16:36:51.031Z,295.73
2022-12-26T16:39:23.467Z,285.00
2022-12-26T16:42:02.757Z,280.02
2022-12-26T16:44:38.012Z,292.95
2022-12-26T16:47:11.198Z,284.95
2022-12-26T16:49:41.493Z,273.63
2022-12-26T16:52:31.253Z,293.52
2022-12-26T16:54:58.938Z,261.20
2022-12-26T16:57:27.368Z,286.52
2022-12-26T16:59:58.082Z,274.23
2022-12-26T17:02:29.600Z,286.88
2022-12-26T17:05:09.269Z,287.20
2022-12-26T17:07:44.404Z,252.13
2022-12-26T17:10:19.496Z,285.03
2022-12-26T17:12:48.313Z,291.65
2022-12-26T17:15:21.857Z,282.10
2022-12-26T17:17:49.753Z,289.60
2022-12-26T17:20:38.029Z,282.13
2022-12-26T17:23:33.764Z,279.90
2022-12-26T17:26:22.640Z,253.57
2022-12-26T17:28:51.117Z,264.30
2022-12-26T17:31:24.730Z,292.23
2022-12-26T17:33:56.743Z,266.40
2022-12-26T17:39:23.279Z,244.93
2022-12-26T17:41:52.825Z,266.13
2022-12-26T17:44:40.867Z,277.83
2022-12-26T17:47:17.435Z,257.70
2022-12-26T17:49:45.442Z,269.30
2022-12-26T17:52:14.866Z,270.30
2022-12-26T17:54:43.923Z,267.00
2022-12-26T17:57:18.549Z,262.23
2022-12-26T17:59:46.824Z,256.63
2022-12-26T18:02:15.019Z,237.23
2022-12-26T18:04:43.535Z,263.33
2022-12-26T18:07:15.973Z,252.00
2022-12-26T18:09:46.588Z,253.03
2022-12-26T18:12:15.774Z,236.47
2022-12-26T18:14:43.928Z,242.77
2022-12-26T18:17:14.800Z,237.90
2022-12-26T18:19:42.652Z,246.13
2022-12-26T18:22:15.024Z,247.57
2022-12-26T18:24:43.668Z,258.80
2022-12-26T18:27:19.094Z,251.17
2022-12-26T18:29:46.933Z,235.37
2022-12-26T18:32:23.510Z,240.83
2022-12-26T18:34:51.554Z,253.07
2022-12-26T18:37:19.849Z,239.00
2022-12-26T18:39:47.755Z,232.33
2022-12-26T18:42:18.089Z,244.33
2022-12-26T18:44:45.964Z,241.30
2022-12-26T18:47:15.156Z,253.93
2022-12-26T18:49:45.161Z,242.17
2022-12-26T18:52:17.661Z,255.57
2022-12-26T18:54:46.178Z,248.03
2022-12-26T18:57:19.953Z,221.73
2022-12-26T18:59:48.912Z,235.37
2022-12-26T19:02:18.583Z,230.77
2022-12-26T19:04:48.357Z,232.20
2022-12-26T19:07:17.271Z,221.17
2022-12-26T19:09:45.814Z,238.83
2022-12-26T19:12:13.660Z,224.70
2022-12-26T19:14:45.047Z,231.20
2022-12-26T19:17:12.932Z,235.43
2022-12-26T19:19:40.608Z,224.83
2022-12-26T19:22:08.303Z,232.87
2022-12-26T19:24:35.986Z,229.77
2022-12-26T19:27:03.950Z,222.27
2022-12-26T19:29:31.785Z,237.57
2022-12-26T19:32:00.834Z,232.13
2022-12-26T19:34:28.942Z,218.53
2022-12-26T19:36:56.609Z,231.73
2022-12-26T19:39:24.270Z,223.27
2022-12-26T19:41:51.986Z,219.57
2022-12-26T19:44:19.867Z,217.50
2022-12-26T19:46:47.899Z,234.23
2022-12-26T19:49:17.235Z,234.97
2022-12-26T19:51:44.945Z,224.93
2022-12-26T19:54:12.598Z,216.87
2022-12-26T19:56:40.284Z,215.63
2022-12-26T19:59:07.866Z,227.17
2022-12-26T20:01:35.603Z,212.13
2022-12-26T20:04:04.979Z,224.07
2022-12-26T20:06:37.777Z,224.73
2022-12-26T20:09:08.587Z,202.87
2022-12-26T20:11:37.808Z,224.87
2022-12-26T20:14:07.456Z,232.50
2022-12-26T20:17:04.245Z,225.73
2022-12-26T20:19:24.713Z,219.03
2022-12-26T20:21:54.229Z,232.93
2022-12-26T20:24:22.898Z,225.27
2022-12-26T20:26:51.139Z,222.87
2022-12-26T20:29:19.098Z,218.33
2022-12-26T20:31:46.944Z,220.90
2022-12-26T20:34:14.924Z,217.50
2022-12-26T20:36:42.726Z,207.43
2022-12-26T20:39:15.375Z,213.57
2022-12-26T20:41:43.342Z,211.20
2022-12-26T20:44:12.786Z,201.60
2022-12-26T20:46:41.746Z,191.17
2022-12-26T20:49:09.889Z,213.87
2022-12-26T20:51:39.753Z,207.37
2022-12-26T20:54:08.188Z,208.47
2022-12-26T20:56:37.692Z,191.13
2022-12-26T20:59:05.833Z,198.90
2022-12-26T21:01:35.115Z,225.93
2022-12-26T21:04:23.308Z,201.07
2022-12-26T21:07:11.317Z,209.00
2022-12-26T21:09:59.676Z,213.00
2022-12-26T21:12:48.975Z,191.47
2022-12-26T21:15:37.631Z,204.20
2022-12-26T21:18:25.625Z,199.70
2022-12-26T21:21:15.981Z,197.47
2022-12-26T21:24:06.191Z,193.67
2022-12-26T21:26:54.536Z,195.67
2022-12-26T21:29:43.897Z,183.67
2022-12-26T21:32:31.854Z,169.10
2022-12-26T21:35:19.807Z,172.70
2022-12-26T21:38:07.780Z,170.23
2022-12-26T21:40:55.919Z,185.67
2022-12-26T21:43:43.860Z,184.73
2022-12-26T21:46:33.206Z,169.77
2022-12-26T21:49:21.187Z,181.67
2022-12-26T21:52:09.692Z,168.97
2022-12-26T21:55:14.358Z,164.17
2022-12-26T21:58:03.829Z,152.83
2022-12-26T22:00:51.822Z,154.30
2022-12-26T22:03:58.856Z,169.10
2022-12-26T22:06:47.199Z,146.67
2022-12-26T22:09:35.106Z,146.77
2022-12-26T22:12:40.780Z,153.13
2022-12-26T22:15:46.578Z,151.50
2022-12-26T22:18:37.103Z,129.87
2022-12-26T22:21:26.842Z,132.37
2022-12-26T22:24:15.064Z,137.00
2022-12-26T22:27:03.038Z,127.43
2022-12-26T22:29:51.011Z,127.73
2022-12-26T22:32:39.205Z,130.07
2022-12-26T22:35:27.773Z,118.63
2022-12-26T22:38:17.099Z,124.30
2022-12-26T22:41:05.911Z,125.57
2022-12-26T22:43:53.962Z,121.83
2022-12-26T22:46:42.587Z,135.47
2022-12-26T22:49:30.597Z,123.63
2022-12-26T22:52:18.566Z,127.73
2022-12-26T22:55:08.539Z,121.23
2022-12-26T22:58:00.642Z,127.73
2022-12-26T23:00:50.380Z,112.87
2022-12-26T23:03:38.401Z,120.70
2022-12-26T23:06:28.566Z,103.10
2022-12-26T23:09:18.002Z,114.47
2022-12-26T23:12:27.598Z,108.67
2022-12-26T23:15:17.792Z,104.60
2022-12-26T23:18:35.015Z,99.40
2022-12-26T23:21:39.821Z,103.27
2022-12-26T23:24:29.911Z,104.60
2022-12-26T23:27:36.650Z,100.30
2022-12-26T23:30:31.009Z,100.27
2022-12-26T23:33:19.123Z,98.00
2022-12-26T23:36:08.958Z,96.87
2022-12-26T23:38:57.023Z,99.73
2022-12-26T23:41:45.079Z,107.00
2022-12-26T23:44:34.614Z,99.37
2022-12-26T23:47:22.804Z,95.40
2022-12-26T23:50:13.133Z,99.77
2022-12-26T23:53:01.198Z,91.07
2022-12-26T23:55:49.122Z,95.00
2022-12-26T23:58:39.784Z,98.23
